createdAt,value
2017-09-04T00:01:28.936Z,82.90
2017-09-04T00:03:56.989Z,82.80
2017-09-04T00:06:25.071Z,82.80
2017-09-04T00:08:53.142Z,82.90
2017-09-04T00:11:21.211Z,82.80
2017-09-04T00:13:49.274Z,82.80
2017-09-04T00:16:17.338Z,83.10
2017-09-04T00:18:45.413Z,82.60
2017-09-04T00:21:13.471Z,82.60
2017-09-04T00:23:41.566Z,82.70
2017-09-04T00:26:09.624Z,82.70
2017-09-04T00:28:37.698Z,82.70
2017-09-04T00:31:05.758Z,82.90
2017-09-04T00:33:33.835Z,82.90
2017-09-04T00:36:01.884Z,82.40
2017-09-04T00:38:29.955Z,82.50
2017-09-04T00:40:58.015Z,82.40
2017-09-04T00:43:26.074Z,82.50
2017-09-04T00:45:54.146Z,82.60
2017-09-04T00:48:22.190Z,82.50
2017-09-04T00:50:51.025Z,82.60
2017-09-04T00:53:19.087Z,82.40
2017-09-04T00:55:47.154Z,82.70
2017-09-04T00:58:15.215Z,82.60
2017-09-04T01:00:43.266Z,82.70
2017-09-04T01:03:12.130Z,82.70
2017-09-04T01:05:40.196Z,82.50
2017-09-04T01:08:08.247Z,82.50
2017-09-04T01:10:36.311Z,82.40
2017-09-04T01:13:04.363Z,82.30
2017-09-04T01:15:32.440Z,82.30
2017-09-04T01:18:00.487Z,82.50
2017-09-04T01:20:28.580Z,82.90
2017-09-04T01:22:56.626Z,83.30
2017-09-04T01:25:24.690Z,83.60
2017-09-04T01:27:52.755Z,83.50
2017-09-04T01:30:20.827Z,83.40
2017-09-04T01:32:48.888Z,83.10
2017-09-04T01:35:16.958Z,83.10
2017-09-04T01:37:45.031Z,83.40
2017-09-04T01:40:13.107Z,83.30
2017-09-04T01:42:41.170Z,83.50
2017-09-04T01:45:09.242Z,84.60
2017-09-04T01:47:37.323Z,83.70
2017-09-04T01:50:05.390Z,83.70
2017-09-04T01:52:33.451Z,83.60
2017-09-04T01:55:01.506Z,83.40
2017-09-04T01:57:29.571Z,83.20
2017-09-04T01:59:57.636Z,83.40
2017-09-04T02:02:25.703Z,83.30
2017-09-04T02:04:53.772Z,83.50
2017-09-04T02:07:21.839Z,83.50
2017-09-04T02:09:49.906Z,83.80
2017-09-04T02:12:17.999Z,83.90
2017-09-04T02:14:46.064Z,83.70
2017-09-04T02:17:14.297Z,83.30
2017-09-04T02:19:42.470Z,83.40
2017-09-04T02:22:10.511Z,83.70
2017-09-04T02:24:38.582Z,83.80
2017-09-04T02:27:06.689Z,84.00
2017-09-04T02:29:34.758Z,84.40
2017-09-04T02:32:02.802Z,84.00
2017-09-04T02:34:30.874Z,83.90
2017-09-04T02:36:59.799Z,83.70
2017-09-04T02:39:27.867Z,83.70
2017-09-04T02:41:55.959Z,83.90
2017-09-04T02:44:24.047Z,83.40
2017-09-04T02:46:52.087Z,83.60
2017-09-04T02:49:20.161Z,83.70
2017-09-04T02:51:48.218Z,83.60
2017-09-04T02:54:16.287Z,83.90
2017-09-04T02:56:44.360Z,83.80
2017-09-04T02:59:12.447Z,83.70
2017-09-04T03:01:40.507Z,83.30
2017-09-04T03:04:08.587Z,83.60
2017-09-04T03:06:36.650Z,83.80
2017-09-04T03:09:04.717Z,83.50
2017-09-04T03:11:32.789Z,83.50
2017-09-04T03:14:00.855Z,83.80
2017-09-04T03:16:29.702Z,84.00
2017-09-04T03:18:57.767Z,84.70
2017-09-04T03:21:25.832Z,84.20
2017-09-04T03:23:53.906Z,83.60
2017-09-04T03:26:21.950Z,83.60
2017-09-04T03:28:50.023Z,83.50
2017-09-04T03:31:18.070Z,83.70
2017-09-04T03:33:46.135Z,83.80
2017-09-04T03:36:14.230Z,84.60
2017-09-04T03:38:42.263Z,84.00
2017-09-04T03:41:10.323Z,84.10
2017-09-04T03:43:38.409Z,84.10
2017-09-04T03:46:06.466Z,84.10
2017-09-04T03:48:34.546Z,84.50
2017-09-04T03:51:02.619Z,84.50
2017-09-04T03:53:30.691Z,84.50
2017-09-04T03:55:58.764Z,85.30
2017-09-04T03:58:26.851Z,84.90
2017-09-04T04:00:55.686Z,85.30
2017-09-04T04:03:23.888Z,85.10
2017-09-04T04:05:51.937Z,84.90
2017-09-04T04:08:20.032Z,84.20
2017-09-04T04:10:48.077Z,84.30
2017-09-04T04:13:16.119Z,84.30
2017-09-04T04:15:44.186Z,84.30
2017-09-04T04:18:12.308Z,83.80
2017-09-04T04:20:40.326Z,84.00
2017-09-04T04:23:08.405Z,84.60
2017-09-04T04:25:36.478Z,83.80
2017-09-04T04:28:04.543Z,83.50
2017-09-04T04:30:32.610Z,83.30
2017-09-04T04:33:00.658Z,83.40
2017-09-04T04:35:28.737Z,83.70
2017-09-04T04:37:56.787Z,84.20
2017-09-04T04:40:24.860Z,84.50
2017-09-04T04:42:52.967Z,84.90
2017-09-04T04:45:21.044Z,85.10
2017-09-04T04:47:49.117Z,85.30
2017-09-04T04:50:17.158Z,85.50
2017-09-04T04:52:45.227Z,85.50
2017-09-04T04:55:13.278Z,85.50
2017-09-04T04:57:41.350Z,85.40
2017-09-04T05:00:09.414Z,85.00
2017-09-04T05:02:37.495Z,85.70
2017-09-04T05:05:05.552Z,85.50
2017-09-04T05:07:34.367Z,85.00
2017-09-04T05:10:02.493Z,84.90
2017-09-04T05:12:30.539Z,85.70
2017-09-04T05:14:58.619Z,85.80
2017-09-04T05:17:26.663Z,85.90
2017-09-04T05:19:54.727Z,87.20
2017-09-04T05:22:23.616Z,87.20
2017-09-04T05:24:51.687Z,87.10
2017-09-04T05:27:19.718Z,87.60
2017-09-04T05:29:47.780Z,88.00
2017-09-04T05:32:15.897Z,88.30
2017-09-04T05:34:44.707Z,89.00
2017-09-04T05:37:12.784Z,88.80
2017-09-04T05:39:40.951Z,88.90
2017-09-04T05:42:09.018Z,88.80
2017-09-04T05:44:37.113Z,89.00
2017-09-04T05:47:05.173Z,89.10
2017-09-04T05:49:33.246Z,89.40
2017-09-04T05:52:01.311Z,89.60
2017-09-04T05:54:29.391Z,89.60
2017-09-04T05:56:57.516Z,89.60
2017-09-04T05:59:26.353Z,90.20
2017-09-04T06:01:54.418Z,90.10
2017-09-04T06:04:22.507Z,90.30
2017-09-04T06:06:50.562Z,90.40
2017-09-04T06:09:18.639Z,90.30
2017-09-04T06:11:46.728Z,90.40
2017-09-04T06:14:14.778Z,90.10
2017-09-04T06:16:42.834Z,90.20
2017-09-04T06:19:10.905Z,90.50
2017-09-04T06:21:38.971Z,90.50
2017-09-04T06:24:07.043Z,90.40
2017-09-04T06:26:35.111Z,90.50
2017-09-04T06:29:03.899Z,90.60
2017-09-04T06:31:31.978Z,90.60
2017-09-04T06:34:00.044Z,90.40
2017-09-04T06:36:28.127Z,90.70
2017-09-04T06:38:56.190Z,90.20
2017-09-04T06:41:24.262Z,90.50
2017-09-04T06:43:52.345Z,88.80
2017-09-04T06:46:20.415Z,90.00
2017-09-04T06:48:48.482Z,89.20
2017-09-04T06:51:16.547Z,88.30
2017-09-04T06:53:44.611Z,89.40
2017-09-04T06:56:12.686Z,90.00
2017-09-04T06:58:40.787Z,90.20
2017-09-04T07:01:08.866Z,87.10
2017-09-04T07:03:36.906Z,87.60
2017-09-04T07:06:04.994Z,88.70
2017-09-04T07:08:33.041Z,89.80
2017-09-04T07:11:01.119Z,89.20
2017-09-04T07:13:29.183Z,89.90
2017-09-04T07:15:57.258Z,87.50
2017-09-04T07:18:26.114Z,88.70
2017-09-04T07:20:54.180Z,87.90
2017-09-04T07:23:22.264Z,87.40
2017-09-04T07:25:50.328Z,87.00
2017-09-04T07:28:18.424Z,88.00
2017-09-04T07:30:46.506Z,87.10
2017-09-04T07:33:14.574Z,87.50
2017-09-04T07:35:42.645Z,86.60
2017-09-04T07:38:10.708Z,84.80
2017-09-04T07:40:38.780Z,83.20
2017-09-04T07:43:06.867Z,83.80
2017-09-04T07:45:34.942Z,84.10
2017-09-04T07:48:03.061Z,81.00
2017-09-04T07:50:31.142Z,81.30
2017-09-04T07:52:59.215Z,81.30
2017-09-04T07:55:27.282Z,80.50
2017-09-04T07:57:55.367Z,80.70
2017-09-04T08:00:23.437Z,80.90
2017-09-04T08:02:51.495Z,77.20
2017-09-04T08:05:19.571Z,78.90
2017-09-04T08:07:47.653Z,79.00
2017-09-04T08:10:15.732Z,77.70
2017-09-04T08:12:43.804Z,78.30
2017-09-04T08:15:11.885Z,77.00
2017-09-04T08:17:39.966Z,75.20
2017-09-04T08:20:08.037Z,76.40
2017-09-04T08:22:36.106Z,75.70
2017-09-04T08:25:04.168Z,76.20
2017-09-04T08:27:32.247Z,74.80
2017-09-04T08:30:00.351Z,73.90
2017-09-04T08:32:28.413Z,73.40
2017-09-04T08:34:56.494Z,73.00
2017-09-04T08:37:25.177Z,73.20
2017-09-04T08:39:53.240Z,72.00
2017-09-04T08:42:21.294Z,74.40
2017-09-04T08:44:49.399Z,69.40
2017-09-04T08:47:17.478Z,70.70
2017-09-04T08:49:45.539Z,67.30
2017-09-04T08:52:13.611Z,68.50
2017-09-04T08:54:41.706Z,70.20
2017-09-04T08:57:09.778Z,69.10
2017-09-04T08:59:37.868Z,68.30
2017-09-04T09:02:05.972Z,66.40
2017-09-04T09:04:34.018Z,67.00
2017-09-04T09:07:02.086Z,65.10
2017-09-04T09:09:30.211Z,65.20
2017-09-04T09:11:58.249Z,63.90
2017-09-04T09:14:26.326Z,64.10
2017-09-04T09:16:54.432Z,63.00
2017-09-04T09:19:22.498Z,62.50
2017-09-04T09:21:50.563Z,62.90
2017-09-04T09:24:18.625Z,59.30
2017-09-04T09:26:46.704Z,60.70
2017-09-04T09:29:14.751Z,61.20
2017-09-04T09:31:42.838Z,59.70
2017-09-04T09:34:10.891Z,58.90
2017-09-04T09:36:38.956Z,57.00
2017-09-04T09:39:07.044Z,53.80
2017-09-04T09:41:35.097Z,46.10
2017-09-04T09:44:03.167Z,41.70
2017-09-04T09:46:31.229Z,39.90
2017-09-04T09:48:59.291Z,36.30
2017-09-04T09:51:27.363Z,34.60
2017-09-04T09:53:55.460Z,33.30
2017-09-04T09:56:23.523Z,33.00
2017-09-04T09:58:51.592Z,30.20
2017-09-04T10:01:19.652Z,29.30
2017-09-04T10:03:47.708Z,28.00
2017-09-04T10:06:15.763Z,26.30
2017-09-04T10:08:43.818Z,25.80
2017-09-04T10:11:11.896Z,26.00
2017-09-04T10:13:39.945Z,27.00
2017-09-04T10:16:08.026Z,27.80
2017-09-04T10:18:36.089Z,27.10
2017-09-04T10:21:04.156Z,26.10
2017-09-04T10:23:33.092Z,25.10
2017-09-04T10:26:01.128Z,25.70
2017-09-04T10:28:29.214Z,25.10
2017-09-04T10:30:57.296Z,25.40
2017-09-04T10:33:25.368Z,24.80
2017-09-04T10:35:53.449Z,24.60
2017-09-04T10:38:21.515Z,24.60
2017-09-04T10:40:49.585Z,24.90
2017-09-04T10:43:17.652Z,25.10
2017-09-04T10:45:45.724Z,23.90
2017-09-04T10:48:13.796Z,24.00
2017-09-04T10:50:41.871Z,23.90
2017-09-04T10:53:09.939Z,23.50
2017-09-04T10:55:38.012Z,23.00
2017-09-04T10:58:06.079Z,23.00
2017-09-04T11:00:34.151Z,23.70
2017-09-04T11:03:02.223Z,23.80
2017-09-04T11:05:30.337Z,23.20
2017-09-04T11:07:59.072Z,23.30
2017-09-04T11:10:27.166Z,23.90
2017-09-04T11:12:55.244Z,22.70
2017-09-04T11:15:23.308Z,22.40
2017-09-04T11:17:51.379Z,22.70
2017-09-04T11:20:20.223Z,20.90
2017-09-04T11:22:48.271Z,20.90
2017-09-04T11:25:16.963Z,21.60
2017-09-04T11:27:45.036Z,21.00
2017-09-04T11:30:13.133Z,21.40
2017-09-04T11:32:41.180Z,21.40
2017-09-04T11:35:09.264Z,20.60
2017-09-04T11:37:37.311Z,20.90
2017-09-04T11:40:05.364Z,22.10
2017-09-04T11:42:33.430Z,23.80
2017-09-04T11:45:01.503Z,24.10
2017-09-04T11:47:29.590Z,23.80
2017-09-04T11:49:57.707Z,21.40
2017-09-04T11:52:25.781Z,21.20
2017-09-04T11:54:53.854Z,21.00
2017-09-04T11:57:21.903Z,22.10
2017-09-04T11:59:49.946Z,24.50
2017-09-04T12:02:18.096Z,24.10
2017-09-04T12:04:46.158Z,26.60
2017-09-04T12:07:15.059Z,28.60
2017-09-04T12:09:43.130Z,28.60
2017-09-04T12:12:11.956Z,32.40
2017-09-04T12:14:40.031Z,32.40
2017-09-04T12:17:08.101Z,32.70
2017-09-04T12:19:36.182Z,33.80
2017-09-04T12:22:04.236Z,34.10
2017-09-04T12:24:32.327Z,34.90
2017-09-04T12:27:00.515Z,35.10
2017-09-04T12:29:28.589Z,37.60
2017-09-04T12:31:56.658Z,36.90
2017-09-04T12:34:24.708Z,39.00
2017-09-04T12:36:53.619Z,38.50
2017-09-04T12:39:21.692Z,38.90
2017-09-04T12:41:49.764Z,36.70
2017-09-04T12:44:17.886Z,36.80
2017-09-04T12:46:45.955Z,38.90
2017-09-04T12:49:14.027Z,38.00
2017-09-04T12:51:42.131Z,37.80
2017-09-04T12:54:10.195Z,37.80
2017-09-04T13:46:07.806Z,41.10
2017-09-04T13:48:41.616Z,40.70
2017-09-04T14:04:56.860Z,38.80
2017-09-04T14:07:43.507Z,40.90
2017-09-04T14:10:17.160Z,40.80
2017-09-04T14:13:02.020Z,41.40
2017-09-04T14:15:45.775Z,41.20
2017-09-04T14:18:14.574Z,41.00
2017-09-04T14:20:42.647Z,40.90
2017-09-04T14:23:10.732Z,40.60
2017-09-04T14:25:38.787Z,41.10
2017-09-04T14:28:06.871Z,41.60
2017-09-04T14:30:34.915Z,40.20
2017-09-04T14:33:02.982Z,42.40
2017-09-04T14:35:31.037Z,41.70
2017-09-04T14:37:59.881Z,42.10
2017-09-04T14:40:42.834Z,41.90
2017-09-04T14:43:27.592Z,42.10
2017-09-04T14:46:00.335Z,40.50
2017-09-04T14:48:30.031Z,43.30
2017-09-04T14:50:58.088Z,41.90
2017-09-04T14:53:26.189Z,41.80
2017-09-04T14:55:54.246Z,41.80
2017-09-04T14:58:22.322Z,41.60
2017-09-04T15:00:50.401Z,42.10
2017-09-04T15:03:18.481Z,42.60
2017-09-04T15:05:46.571Z,42.10
2017-09-04T15:08:14.702Z,42.10
2017-09-04T15:10:42.782Z,42.90
2017-09-04T15:13:10.839Z,41.50
2017-09-04T15:15:38.920Z,43.50
2017-09-04T15:18:06.996Z,42.20
2017-09-04T15:20:35.075Z,43.00
2017-09-04T15:23:03.162Z,39.50
2017-09-04T15:25:31.576Z,38.20
2017-09-04T15:27:59.694Z,38.70
2017-09-04T15:30:27.738Z,39.60
2017-09-04T15:32:55.838Z,39.30
2017-09-04T15:35:23.888Z,40.60
2017-09-04T15:37:51.953Z,40.10
2017-09-04T15:40:20.014Z,39.10
2017-09-04T15:42:48.104Z,40.30
2017-09-04T15:45:16.160Z,39.50
2017-09-04T15:47:44.232Z,39.80
2017-09-04T15:50:12.291Z,41.10
2017-09-04T15:52:41.226Z,41.10
2017-09-04T15:55:09.297Z,41.10
2017-09-04T15:57:38.095Z,41.70
2017-09-04T16:00:06.230Z,41.70
2017-09-04T16:02:34.319Z,41.20
2017-09-04T16:05:02.423Z,42.30
2017-09-04T16:07:32.172Z,42.80
2017-09-04T16:10:00.253Z,44.50
2017-09-04T16:15:26.742Z,43.60
2017-09-04T16:18:10.535Z,43.80
2017-09-04T16:20:51.399Z,44.80
2017-09-04T16:23:35.811Z,45.10
2017-09-04T16:26:07.455Z,45.00
2017-09-04T16:28:46.731Z,46.70
2017-09-04T16:31:32.271Z,46.40
2017-09-04T16:34:03.442Z,46.30
2017-09-04T16:36:43.355Z,46.70
2017-09-04T16:39:22.309Z,47.30
2017-09-04T16:41:53.200Z,48.80
2017-09-04T16:44:22.190Z,49.60
2017-09-04T16:46:50.327Z,49.40
2017-09-04T16:49:19.198Z,48.90
2017-09-04T16:51:47.292Z,51.00
2017-09-04T16:54:18.916Z,50.60
2017-09-04T16:56:49.486Z,49.10
2017-09-04T16:59:18.515Z,50.60
2017-09-04T17:01:46.572Z,50.00
2017-09-04T17:04:14.695Z,50.10
2017-09-04T17:06:42.738Z,50.10
2017-09-04T17:09:13.587Z,49.30
2017-09-04T17:11:44.286Z,49.90
2017-09-04T17:14:13.106Z,50.40
2017-09-04T17:16:43.711Z,50.30
2017-09-04T17:19:13.775Z,51.70
2017-09-04T17:21:48.608Z,52.80
2017-09-04T17:24:17.526Z,51.80
2017-09-04T17:26:45.621Z,51.90
2017-09-04T17:29:13.695Z,52.30
2017-09-04T17:31:42.407Z,52.50
2017-09-04T17:34:10.473Z,52.90
2017-09-04T17:36:38.559Z,54.50
2017-09-04T17:39:07.361Z,53.20
2017-09-04T17:41:35.468Z,54.20
2017-09-04T17:44:03.552Z,54.00
2017-09-04T17:46:33.420Z,54.50
2017-09-04T17:49:01.469Z,53.50
2017-09-04T17:51:29.546Z,54.60
2017-09-04T17:53:57.623Z,55.10
2017-09-04T17:56:25.713Z,55.40
2017-09-04T17:58:53.792Z,54.80
2017-09-04T18:01:21.872Z,55.90
2017-09-04T18:03:50.001Z,55.70
2017-09-04T18:06:18.091Z,55.00
2017-09-04T18:08:46.163Z,56.00
2017-09-04T18:11:14.244Z,55.00
2017-09-04T18:13:42.355Z,55.30
2017-09-04T18:16:10.514Z,56.10
2017-09-04T18:18:38.573Z,56.00
2017-09-04T18:21:06.648Z,55.90
2017-09-04T18:23:34.717Z,56.10
2017-09-04T18:26:02.823Z,55.40
2017-09-04T18:28:30.869Z,55.80
2017-09-04T18:30:58.940Z,55.80
2017-09-04T18:33:27.020Z,56.50
2017-09-04T18:35:55.112Z,56.50
2017-09-04T18:38:23.186Z,56.40
2017-09-04T18:40:51.246Z,57.00
2017-09-04T18:43:19.370Z,57.70
2017-09-04T18:45:47.439Z,57.20
2017-09-04T18:48:15.543Z,57.00
2017-09-04T18:50:43.610Z,58.30
2017-09-04T18:53:11.695Z,58.10
2017-09-04T18:55:39.787Z,58.40
2017-09-04T18:58:07.858Z,58.40
2017-09-04T19:00:35.935Z,58.40
2017-09-04T19:03:04.101Z,58.80
2017-09-04T19:05:32.162Z,58.70
2017-09-04T19:08:00.258Z,59.00
2017-09-04T19:10:28.331Z,59.40
2017-09-04T19:12:56.426Z,59.40
2017-09-04T19:15:24.535Z,59.40
2017-09-04T19:17:53.379Z,60.20
2017-09-04T19:20:21.464Z,60.20
2017-09-04T19:22:49.881Z,60.20
2017-09-04T19:25:18.801Z,61.30
2017-09-04T19:27:46.887Z,61.20
2017-09-04T19:30:15.034Z,61.10
2017-09-04T19:32:43.700Z,62.00
2017-09-04T19:35:12.583Z,62.60
2017-09-04T19:37:40.633Z,62.50
2017-09-04T19:40:08.732Z,62.30
2017-09-04T19:42:37.557Z,62.40
2017-09-04T19:45:05.634Z,62.30
2017-09-04T19:47:33.736Z,62.10
2017-09-04T19:50:01.910Z,62.40
2017-09-04T19:52:29.988Z,62.90
2017-09-04T19:54:58.045Z,63.50
2017-09-04T19:57:26.101Z,64.60
2017-09-04T19:59:54.193Z,64.60
2017-09-04T20:02:22.310Z,65.90
2017-09-04T20:04:50.421Z,66.00
2017-09-04T20:07:18.624Z,66.30
2017-09-04T20:09:47.052Z,66.80
2017-09-04T20:12:15.120Z,66.80
2017-09-04T20:14:43.221Z,67.00
2017-09-04T20:17:11.267Z,66.90
2017-09-04T20:19:39.378Z,67.20
2017-09-04T20:22:07.474Z,66.70
2017-09-04T20:24:36.332Z,69.20
2017-09-04T20:29:38.792Z,69.20
2017-09-04T20:32:06.863Z,70.00
2017-09-04T20:34:34.967Z,70.20
2017-09-04T20:37:04.607Z,70.20
2017-09-04T20:39:32.674Z,69.50
2017-09-04T20:42:00.738Z,69.60
2017-09-04T20:44:28.803Z,70.20
2017-09-04T20:46:57.645Z,70.50
2017-09-04T20:49:25.736Z,70.40
2017-09-04T20:51:53.823Z,70.50
2017-09-04T20:54:21.887Z,71.40
2017-09-04T20:56:50.477Z,70.70
2017-09-04T20:59:18.541Z,70.70
2017-09-04T21:01:46.598Z,70.90
2017-09-04T21:04:14.666Z,71.50
2017-09-04T21:06:42.790Z,71.40
2017-09-04T21:09:10.886Z,71.90
2017-09-04T21:11:38.954Z,71.30
2017-09-04T21:14:07.026Z,71.80
2017-09-04T21:16:35.127Z,72.00
2017-09-04T21:19:03.198Z,72.20
2017-09-04T21:21:31.291Z,72.00
2017-09-04T21:23:59.360Z,72.30
2017-09-04T21:26:27.436Z,73.00
2017-09-04T21:28:55.500Z,72.90
2017-09-04T21:31:23.563Z,72.80
2017-09-04T21:33:52.387Z,72.90
2017-09-04T21:36:20.447Z,72.70
2017-09-04T21:38:48.534Z,72.90
2017-09-04T21:41:16.587Z,73.20
2017-09-04T21:43:44.658Z,73.60
2017-09-04T21:46:12.730Z,74.00
2017-09-04T21:48:40.803Z,73.80
2017-09-04T21:51:08.870Z,73.40
2017-09-04T21:53:36.935Z,73.50
2017-09-04T21:56:05.011Z,74.10
2017-09-04T21:58:33.068Z,74.40
2017-09-04T22:01:01.935Z,74.50
2017-09-04T22:03:30.007Z,74.50
2017-09-04T22:05:58.055Z,74.40
2017-09-04T22:08:26.137Z,74.00
2017-09-04T22:10:54.211Z,74.00
2017-09-04T22:13:22.271Z,73.90
2017-09-04T22:15:50.352Z,75.00
2017-09-04T22:18:18.427Z,74.40
2017-09-04T22:20:46.494Z,74.80
2017-09-04T22:23:14.578Z,75.40
2017-09-04T22:25:42.636Z,75.40
2017-09-04T22:28:10.743Z,74.70
2017-09-04T22:30:38.796Z,74.70
2017-09-04T22:33:06.874Z,74.90
2017-09-04T22:35:34.956Z,75.10
2017-09-04T22:38:03.028Z,74.80
2017-09-04T22:40:31.079Z,74.80
2017-09-04T22:42:59.150Z,75.00
2017-09-04T22:45:27.239Z,75.00
2017-09-04T22:47:55.341Z,75.10
2017-09-04T22:50:23.395Z,75.30
2017-09-04T22:52:51.462Z,76.20
2017-09-04T22:55:19.521Z,75.10
2017-09-04T22:57:47.603Z,75.20
2017-09-04T23:00:15.647Z,75.50
2017-09-04T23:02:43.767Z,75.40
2017-09-04T23:05:11.829Z,76.00
2017-09-04T23:07:39.899Z,76.20
2017-09-04T23:10:07.952Z,76.20
2017-09-04T23:12:36.012Z,76.10
2017-09-04T23:15:04.071Z,76.60
2017-09-04T23:17:32.147Z,76.60
2017-09-04T23:20:00.226Z,77.30
2017-09-04T23:22:28.279Z,77.60
2017-09-04T23:24:56.352Z,78.10
2017-09-04T23:27:25.191Z,78.50
2017-09-04T23:29:53.255Z,78.50
2017-09-04T23:32:21.334Z,78.60
2017-09-04T23:34:49.410Z,78.60
2017-09-04T23:37:17.466Z,79.00
2017-09-04T23:39:45.531Z,79.20
2017-09-04T23:42:13.590Z,79.70
2017-09-04T23:44:41.671Z,79.30
2017-09-04T23:47:09.754Z,79.70
2017-09-04T23:49:37.825Z,79.80
2017-09-04T23:52:05.874Z,80.00
2017-09-04T23:54:33.959Z,80.10
2017-09-04T23:57:02.028Z,80.20
2017-09-04T23:59:30.159Z,80.20
